createdAt,value
2017-07-22T00:00:36.045Z,70.20
2017-07-22T00:01:33.319Z,70.23
2017-07-22T00:02:30.574Z,70.22
2017-07-22T00:03:27.974Z,70.23
2017-07-22T00:04:25.218Z,70.24
2017-07-22T00:05:22.523Z,70.28
2017-07-22T00:06:19.772Z,70.32
2017-07-22T00:07:17.052Z,70.32
2017-07-22T00:08:14.320Z,70.36
2017-07-22T00:09:11.614Z,70.38
2017-07-22T00:10:08.862Z,70.41
2017-07-22T00:11:06.137Z,70.45
2017-07-22T00:12:03.409Z,70.46
2017-07-22T00:13:00.655Z,70.49
2017-07-22T00:13:57.936Z,70.51
2017-07-22T00:14:55.266Z,70.56
2017-07-22T00:15:52.573Z,70.58
2017-07-22T00:16:49.880Z,70.56
2017-07-22T00:17:47.122Z,70.55
2017-07-22T00:18:44.415Z,70.57
2017-07-22T00:19:41.673Z,70.58
2017-07-22T00:20:38.925Z,70.62
2017-07-22T00:21:36.168Z,70.66
2017-07-22T00:22:33.525Z,70.66
2017-07-22T00:23:30.779Z,70.68
2017-07-22T00:24:28.048Z,70.69
2017-07-22T00:25:25.308Z,70.70
2017-07-22T00:26:22.592Z,70.68
2017-07-22T00:27:19.821Z,70.70
2017-07-22T00:28:17.076Z,70.70
2017-07-22T00:29:14.333Z,70.74
2017-07-22T00:30:11.723Z,70.74
2017-07-22T00:31:08.995Z,70.71
2017-07-22T00:32:06.262Z,70.76
2017-07-22T00:33:03.505Z,70.78
2017-07-22T00:34:00.797Z,70.82
2017-07-22T00:34:58.049Z,70.82
2017-07-22T00:35:55.350Z,70.83
2017-07-22T00:36:52.577Z,70.84
2017-07-22T00:37:49.839Z,70.86
2017-07-22T00:38:47.132Z,70.88
2017-07-22T00:39:44.389Z,70.89
2017-07-22T00:40:41.653Z,70.90
2017-07-22T00:41:38.922Z,70.91
2017-07-22T00:42:36.172Z,70.91
2017-07-22T00:43:33.457Z,70.91
2017-07-22T00:44:30.733Z,70.92
2017-07-22T00:45:28.013Z,70.90
2017-07-22T00:46:25.265Z,70.92
2017-07-22T00:47:22.534Z,70.95
2017-07-22T00:48:19.772Z,70.95
2017-07-22T00:49:17.076Z,70.94
2017-07-22T00:50:14.336Z,70.95
2017-07-22T00:51:11.711Z,70.95
2017-07-22T00:52:08.974Z,70.95
2017-07-22T00:53:06.245Z,70.97
2017-07-22T00:54:03.491Z,70.94
2017-07-22T00:55:00.773Z,70.94
2017-07-22T00:55:58.008Z,70.98
2017-07-22T00:56:55.279Z,70.98
2017-07-22T00:57:52.513Z,70.98
2017-07-22T00:58:49.801Z,70.98
2017-07-22T00:59:47.056Z,70.97
2017-07-22T01:00:44.392Z,71.00
2017-07-22T01:01:41.653Z,71.02
2017-07-22T01:02:38.980Z,71.05
2017-07-22T01:03:36.228Z,71.04
2017-07-22T01:04:33.527Z,71.05
2017-07-22T01:05:30.798Z,71.10
2017-07-22T01:06:28.090Z,71.09
2017-07-22T01:07:25.348Z,71.10
2017-07-22T01:08:22.626Z,71.11
2017-07-22T01:09:19.917Z,71.09
2017-07-22T01:10:17.225Z,71.09
2017-07-22T01:11:14.473Z,71.15
2017-07-22T01:12:11.780Z,71.17
2017-07-22T01:13:09.060Z,71.18
2017-07-22T01:14:06.323Z,71.20
2017-07-22T01:15:03.597Z,71.20
2017-07-22T01:16:00.864Z,71.21
2017-07-22T01:16:58.129Z,71.23
2017-07-22T01:17:55.384Z,71.26
2017-07-22T01:18:52.657Z,71.30
2017-07-22T01:19:49.924Z,71.29
2017-07-22T01:20:47.194Z,71.31
2017-07-22T01:21:44.461Z,71.33
2017-07-22T01:22:41.727Z,71.34
2017-07-22T01:23:39.082Z,71.37
2017-07-22T01:24:36.365Z,71.38
2017-07-22T01:25:33.731Z,71.42
2017-07-22T01:26:31.052Z,71.43
2017-07-22T01:27:28.326Z,71.42
2017-07-22T01:28:25.612Z,71.42
2017-07-22T01:29:22.884Z,71.44
2017-07-22T01:30:20.144Z,71.46
2017-07-22T01:31:17.443Z,71.49
2017-07-22T01:32:14.684Z,71.48
2017-07-22T01:33:11.945Z,71.52
2017-07-22T01:34:09.198Z,71.53
2017-07-22T01:35:06.497Z,71.55
2017-07-22T01:36:03.754Z,71.55
2017-07-22T01:37:01.088Z,71.55
2017-07-22T01:37:58.324Z,71.58
2017-07-22T01:38:57.789Z,71.61
2017-07-22T01:39:55.042Z,71.61
2017-07-22T01:40:52.322Z,71.61
2017-07-22T01:41:49.633Z,71.61
2017-07-22T01:42:46.905Z,71.67
2017-07-22T01:43:44.144Z,71.66
2017-07-22T01:44:41.403Z,71.66
2017-07-22T01:45:38.656Z,71.68
2017-07-22T01:46:35.958Z,71.70
2017-07-22T01:47:33.196Z,71.76
2017-07-22T01:48:30.484Z,71.73
2017-07-22T01:49:27.708Z,71.75
2017-07-22T01:50:25.002Z,71.75
2017-07-22T01:51:22.290Z,71.77
2017-07-22T01:52:19.584Z,71.80
2017-07-22T01:53:16.841Z,71.79
2017-07-22T01:54:14.137Z,71.84
2017-07-22T01:55:11.388Z,71.84
2017-07-22T01:56:08.679Z,71.89
2017-07-22T01:57:05.969Z,71.87
2017-07-22T01:58:03.251Z,71.91
2017-07-22T01:59:00.504Z,71.92
2017-07-22T01:59:57.792Z,71.92
2017-07-22T02:00:55.040Z,71.92
2017-07-22T02:01:52.328Z,71.94
2017-07-22T02:02:49.574Z,71.96
2017-07-22T02:03:46.864Z,71.98
2017-07-22T02:04:44.126Z,71.98
2017-07-22T02:05:41.429Z,71.99
2017-07-22T02:06:38.720Z,71.99
2017-07-22T02:07:36.016Z,71.97
2017-07-22T02:08:33.268Z,72.01
2017-07-22T02:09:30.548Z,72.02
2017-07-22T02:10:27.831Z,72.04
2017-07-22T02:11:25.089Z,72.04
2017-07-22T02:12:22.377Z,72.03
2017-07-22T02:13:19.655Z,72.11
2017-07-22T02:14:16.966Z,72.12
2017-07-22T02:15:14.285Z,72.14
2017-07-22T02:16:11.549Z,72.16
2017-07-22T02:17:08.820Z,72.16
2017-07-22T02:18:06.086Z,72.19
2017-07-22T02:19:03.384Z,72.18
2017-07-22T02:20:00.636Z,72.21
2017-07-22T02:20:57.936Z,72.23
2017-07-22T02:21:55.223Z,72.27
2017-07-22T02:22:52.597Z,72.27
2017-07-22T02:23:49.893Z,72.29
2017-07-22T02:24:47.164Z,72.31
2017-07-22T02:25:44.409Z,72.32
2017-07-22T02:26:41.684Z,72.34
2017-07-22T02:27:38.993Z,72.36
2017-07-22T02:28:36.289Z,72.35
2017-07-22T02:29:33.576Z,72.37
2017-07-22T02:30:30.845Z,72.43
2017-07-22T02:31:28.097Z,72.42
2017-07-22T02:32:25.388Z,72.44
2017-07-22T02:33:22.669Z,72.47
2017-07-22T02:34:19.970Z,72.47
2017-07-22T02:35:17.222Z,72.50
2017-07-22T02:36:14.579Z,72.52
2017-07-22T02:37:11.863Z,72.53
2017-07-22T02:38:09.160Z,72.58
2017-07-22T02:39:06.393Z,72.57
2017-07-22T02:40:03.669Z,72.65
2017-07-22T02:41:00.937Z,72.65
2017-07-22T02:41:58.209Z,72.66
2017-07-22T02:42:55.453Z,72.69
2017-07-22T02:43:52.742Z,72.69
2017-07-22T02:44:49.990Z,72.72
2017-07-22T02:45:47.257Z,72.73
2017-07-22T02:46:44.500Z,72.75
2017-07-22T02:47:41.771Z,72.77
2017-07-22T02:48:39.048Z,72.81
2017-07-22T02:49:36.325Z,72.82
2017-07-22T02:50:33.561Z,72.85
2017-07-22T02:51:30.972Z,72.85
2017-07-22T02:52:28.291Z,72.88
2017-07-22T02:53:25.584Z,72.89
2017-07-22T02:54:22.846Z,72.90
2017-07-22T02:55:20.120Z,72.92
2017-07-22T02:56:17.353Z,72.92
2017-07-22T02:57:14.736Z,72.94
2017-07-22T02:58:11.979Z,72.93
2017-07-22T02:59:09.252Z,72.95
2017-07-22T03:00:06.492Z,72.97
2017-07-22T03:01:03.771Z,73.00
2017-07-22T03:02:01.053Z,73.01
2017-07-22T03:02:58.345Z,73.03
2017-07-22T03:03:55.616Z,73.04
2017-07-22T03:04:52.892Z,73.06
2017-07-22T03:05:50.165Z,73.04
2017-07-22T03:06:47.450Z,73.06
2017-07-22T03:07:44.689Z,73.05
2017-07-22T03:08:41.945Z,73.07
2017-07-22T03:09:39.257Z,73.10
2017-07-22T03:10:36.552Z,73.13
2017-07-22T03:11:33.812Z,73.17
2017-07-22T03:12:31.148Z,73.19
2017-07-22T03:13:28.507Z,73.20
2017-07-22T03:14:25.832Z,73.21
2017-07-22T03:15:23.084Z,73.23
2017-07-22T03:16:20.368Z,73.29
2017-07-22T03:17:17.615Z,73.32
2017-07-22T03:18:14.892Z,73.32
2017-07-22T03:19:12.187Z,73.34
2017-07-22T03:20:09.455Z,73.35
2017-07-22T03:21:06.712Z,73.38
2017-07-22T03:22:03.989Z,73.38
2017-07-22T03:23:01.236Z,73.40
2017-07-22T03:23:58.487Z,73.40
2017-07-22T03:24:56.651Z,73.41
2017-07-22T03:25:53.916Z,73.44
2017-07-22T03:26:51.146Z,73.46
2017-07-22T03:27:48.422Z,73.47
2017-07-22T03:28:45.695Z,73.46
2017-07-22T03:29:42.995Z,73.47
2017-07-22T03:30:40.274Z,73.49
2017-07-22T03:31:37.545Z,73.50
2017-07-22T03:32:34.791Z,73.50
2017-07-22T03:33:32.056Z,73.53
2017-07-22T03:34:29.328Z,73.56
2017-07-22T03:35:26.640Z,73.57
2017-07-22T03:36:23.913Z,73.58
2017-07-22T03:37:21.180Z,73.57
2017-07-22T03:38:18.452Z,73.59
2017-07-22T03:39:15.765Z,73.60
2017-07-22T03:40:13.029Z,73.65
2017-07-22T03:41:10.289Z,73.67
2017-07-22T03:42:07.511Z,73.67
2017-07-22T03:43:04.773Z,73.68
2017-07-22T03:44:02.090Z,73.70
2017-07-22T03:44:59.446Z,73.72
2017-07-22T03:45:56.713Z,73.72
2017-07-22T03:46:53.968Z,73.73
2017-07-22T03:47:51.213Z,73.76
2017-07-22T03:48:48.539Z,73.79
2017-07-22T03:49:45.872Z,73.83
2017-07-22T03:50:43.130Z,73.84
2017-07-22T03:51:40.370Z,73.85
2017-07-22T03:52:37.653Z,73.87
2017-07-22T03:53:34.880Z,73.88
2017-07-22T03:54:32.141Z,73.92
2017-07-22T03:55:29.402Z,73.95
2017-07-22T03:56:26.689Z,73.95
2017-07-22T03:57:23.938Z,73.97
2017-07-22T03:58:21.224Z,74.01
2017-07-22T03:59:18.472Z,74.02
2017-07-22T04:00:15.769Z,74.03
2017-07-22T04:01:13.018Z,74.00
2017-07-22T04:02:10.280Z,74.04
2017-07-22T04:03:07.511Z,74.07
2017-07-22T04:04:04.785Z,74.09
2017-07-22T04:05:02.031Z,74.10
2017-07-22T04:05:59.332Z,74.12
2017-07-22T04:06:56.581Z,74.11
2017-07-22T04:07:53.860Z,74.11
2017-07-22T04:08:51.136Z,74.14
2017-07-22T04:09:48.396Z,74.13
2017-07-22T04:10:45.653Z,74.14
2017-07-22T04:11:42.907Z,74.12
2017-07-22T04:12:40.152Z,74.15
2017-07-22T04:13:37.470Z,74.16
2017-07-22T04:14:34.725Z,74.15
2017-07-22T04:15:32.003Z,74.16
2017-07-22T04:16:29.321Z,74.16
2017-07-22T04:17:26.596Z,74.15
2017-07-22T04:18:23.815Z,74.15
2017-07-22T04:19:21.095Z,74.16
2017-07-22T04:20:18.369Z,74.16
2017-07-22T04:21:15.677Z,74.18
2017-07-22T04:22:12.909Z,74.20
2017-07-22T04:23:10.169Z,74.19
2017-07-22T04:24:07.424Z,74.18
2017-07-22T04:25:04.696Z,74.20
2017-07-22T04:26:02.000Z,74.22
2017-07-22T04:26:59.342Z,74.24
2017-07-22T04:27:56.612Z,74.23
2017-07-22T04:28:53.871Z,74.24
2017-07-22T04:29:51.742Z,74.24
2017-07-22T04:30:49.009Z,74.23
2017-07-22T04:31:46.358Z,74.25
2017-07-22T04:32:43.669Z,74.25
2017-07-22T04:33:40.901Z,74.29
2017-07-22T04:34:38.165Z,74.26
2017-07-22T04:35:35.404Z,74.29
2017-07-22T04:36:32.744Z,74.30
2017-07-22T04:37:30.008Z,74.33
2017-07-22T04:38:27.333Z,74.33
2017-07-22T04:39:24.604Z,74.33
2017-07-22T04:40:21.864Z,74.34
2017-07-22T04:41:19.104Z,74.39
2017-07-22T04:42:16.413Z,74.41
2017-07-22T04:43:13.660Z,74.42
2017-07-22T04:44:10.929Z,74.39
2017-07-22T04:45:08.206Z,74.41
2017-07-22T04:46:05.465Z,74.39
2017-07-22T04:47:02.723Z,74.42
2017-07-22T04:47:59.995Z,74.41
2017-07-22T04:48:57.500Z,74.44
2017-07-22T04:49:54.985Z,74.49
2017-07-22T04:50:52.581Z,74.47
2017-07-22T04:51:50.250Z,74.48
2017-07-22T04:52:47.845Z,74.49
2017-07-22T04:53:45.472Z,74.49
2017-07-22T04:54:42.898Z,74.50
2017-07-22T04:55:40.384Z,74.53
2017-07-22T04:56:37.958Z,74.55
2017-07-22T04:57:35.522Z,74.55
2017-07-22T04:58:32.865Z,74.56
2017-07-22T04:59:30.164Z,74.58
2017-07-22T05:00:27.408Z,74.59
2017-07-22T05:01:24.664Z,74.59
2017-07-22T05:02:21.916Z,74.64
2017-07-22T05:03:19.172Z,74.64
2017-07-22T05:04:16.435Z,74.67
2017-07-22T05:05:13.729Z,74.69
2017-07-22T05:06:11.036Z,74.71
2017-07-22T05:07:08.313Z,74.75
2017-07-22T05:08:05.584Z,74.76
2017-07-22T05:09:02.890Z,74.77
2017-07-22T05:10:00.199Z,74.79
2017-07-22T05:10:57.483Z,74.79
2017-07-22T05:11:54.773Z,74.81
2017-07-22T05:12:52.088Z,74.84
2017-07-22T05:13:49.358Z,74.86
2017-07-22T05:14:46.632Z,74.89
2017-07-22T05:15:43.885Z,74.91
2017-07-22T05:16:41.148Z,74.92
2017-07-22T05:17:38.376Z,74.94
2017-07-22T05:18:35.694Z,74.96
2017-07-22T05:19:32.935Z,74.98
2017-07-22T05:20:30.212Z,75.00
2017-07-22T05:21:27.462Z,74.99
2017-07-22T05:22:24.725Z,75.01
2017-07-22T05:23:22.480Z,75.02
2017-07-22T05:24:19.777Z,75.05
2017-07-22T05:25:17.021Z,75.07
2017-07-22T05:26:14.292Z,75.10
2017-07-22T05:27:11.535Z,75.12
2017-07-22T05:28:08.833Z,75.14
2017-07-22T05:29:06.097Z,75.16
2017-07-22T05:30:03.388Z,75.17
2017-07-22T05:31:00.700Z,75.20
2017-07-22T05:31:58.018Z,75.24
2017-07-22T05:32:55.248Z,75.29
2017-07-22T05:33:52.632Z,75.27
2017-07-22T05:34:49.859Z,75.34
2017-07-22T05:35:47.117Z,75.34
2017-07-22T05:36:44.341Z,75.40
2017-07-22T05:37:41.618Z,75.43
2017-07-22T05:38:38.880Z,75.44
2017-07-22T05:39:36.136Z,75.49
2017-07-22T05:40:33.381Z,75.51
2017-07-22T05:41:30.712Z,75.52
2017-07-22T05:42:27.982Z,75.58
2017-07-22T05:43:25.372Z,75.61
2017-07-22T05:44:22.662Z,75.66
2017-07-22T05:45:19.918Z,75.68
2017-07-22T05:46:17.185Z,75.72
2017-07-22T05:47:14.468Z,75.75
2017-07-22T05:48:11.692Z,75.78
2017-07-22T05:49:09.002Z,75.80
2017-07-22T05:50:06.288Z,75.84
2017-07-22T05:51:03.581Z,75.89
2017-07-22T05:52:00.828Z,75.94
2017-07-22T05:52:58.176Z,75.98
2017-07-22T05:53:55.445Z,76.01
2017-07-22T05:54:52.717Z,76.03
2017-07-22T05:55:49.947Z,76.07
2017-07-22T05:56:47.272Z,76.12
2017-07-22T05:57:44.508Z,76.16
2017-07-22T05:58:41.793Z,76.24
2017-07-22T05:59:39.437Z,76.29
2017-07-22T06:00:36.754Z,76.30
2017-07-22T06:01:33.975Z,76.33
2017-07-22T06:02:31.291Z,76.37
2017-07-22T06:03:28.572Z,76.42
2017-07-22T06:04:25.845Z,76.48
2017-07-22T06:05:23.105Z,76.55
2017-07-22T06:06:20.376Z,76.59
2017-07-22T06:07:17.645Z,76.60
2017-07-22T06:08:14.905Z,76.65
2017-07-22T06:09:12.160Z,76.67
2017-07-22T06:10:09.448Z,76.71
2017-07-22T06:11:06.713Z,76.75
2017-07-22T06:12:03.969Z,76.80
2017-07-22T06:13:01.204Z,76.83
2017-07-22T06:13:58.472Z,76.88
2017-07-22T06:14:55.742Z,76.90
2017-07-22T06:15:53.029Z,76.94
2017-07-22T06:16:50.284Z,76.96
2017-07-22T06:17:47.568Z,76.97
2017-07-22T06:18:44.813Z,77.02
2017-07-22T06:19:42.076Z,77.03
2017-07-22T06:20:39.333Z,77.04
2017-07-22T06:21:36.606Z,77.10
2017-07-22T06:22:33.824Z,77.11
2017-07-22T06:23:31.103Z,77.13
2017-07-22T06:24:28.360Z,77.16
2017-07-22T06:25:25.834Z,77.19
2017-07-22T06:26:23.066Z,77.18
2017-07-22T06:27:20.332Z,77.22
2017-07-22T06:28:17.561Z,77.26
2017-07-22T06:29:14.821Z,77.31
2017-07-22T06:30:12.071Z,77.29
2017-07-22T06:31:09.342Z,77.31
2017-07-22T06:32:06.590Z,77.33
2017-07-22T06:33:03.853Z,77.30
2017-07-22T06:34:01.096Z,77.35
2017-07-22T06:34:58.363Z,77.38
2017-07-22T06:35:55.631Z,77.40
2017-07-22T06:36:52.906Z,77.44
2017-07-22T06:37:50.139Z,77.46
2017-07-22T06:38:47.409Z,77.46
2017-07-22T06:39:44.653Z,77.46
2017-07-22T06:40:41.944Z,77.43
2017-07-22T06:41:39.185Z,77.41
2017-07-22T06:42:36.440Z,77.41
2017-07-22T06:43:33.681Z,77.42
2017-07-22T06:44:30.978Z,77.39
2017-07-22T06:45:28.232Z,77.38
2017-07-22T06:46:25.523Z,77.40
2017-07-22T06:47:22.762Z,77.36
2017-07-22T06:48:20.034Z,77.30
2017-07-22T06:49:17.268Z,77.29
2017-07-22T06:50:14.641Z,77.28
2017-07-22T06:51:11.914Z,77.29
2017-07-22T06:52:09.208Z,77.29
2017-07-22T06:53:06.452Z,77.25
2017-07-22T06:54:03.733Z,77.24
2017-07-22T06:55:01.031Z,77.29
2017-07-22T06:55:58.310Z,77.30
2017-07-22T06:56:55.555Z,77.27
2017-07-22T06:57:52.824Z,77.24
2017-07-22T06:58:50.080Z,77.21
2017-07-22T06:59:47.421Z,77.16
2017-07-22T07:00:44.652Z,77.16
2017-07-22T07:01:41.934Z,77.15
2017-07-22T07:02:39.164Z,77.08
2017-07-22T07:03:36.416Z,76.99
2017-07-22T07:04:33.649Z,76.92
2017-07-22T07:05:30.917Z,76.88
2017-07-22T07:06:28.209Z,76.83
2017-07-22T07:07:25.472Z,76.78
2017-07-22T07:08:22.754Z,76.75
2017-07-22T07:09:20.009Z,76.76
2017-07-22T07:10:17.251Z,76.69
2017-07-22T07:11:14.524Z,76.61
2017-07-22T07:12:11.796Z,76.58
2017-07-22T07:13:09.075Z,76.54
2017-07-22T07:14:06.304Z,76.54
2017-07-22T07:15:03.568Z,76.49
2017-07-22T07:16:00.810Z,76.42
2017-07-22T07:16:58.122Z,76.39
2017-07-22T07:17:55.376Z,76.34
2017-07-22T07:18:52.628Z,76.33
2017-07-22T07:19:49.869Z,76.26
2017-07-22T07:20:47.140Z,76.18
2017-07-22T07:21:44.365Z,76.13
2017-07-22T07:22:41.656Z,76.17
2017-07-22T07:23:38.900Z,76.11
2017-07-22T07:24:36.168Z,76.06
2017-07-22T07:25:33.392Z,76.03
2017-07-22T07:26:30.661Z,76.00
2017-07-22T07:27:27.911Z,76.00
2017-07-22T07:28:25.164Z,75.99
2017-07-22T07:29:22.392Z,75.98
2017-07-22T07:30:19.660Z,75.95
2017-07-22T07:31:16.925Z,75.86
2017-07-22T07:32:14.232Z,75.80
2017-07-22T07:33:11.485Z,75.77
2017-07-22T07:34:08.750Z,75.74
2017-07-22T07:35:05.985Z,75.71
2017-07-22T07:36:03.249Z,75.73
2017-07-22T07:37:00.489Z,75.74
2017-07-22T07:37:57.789Z,75.67
2017-07-22T07:38:55.083Z,75.67
2017-07-22T07:39:52.828Z,75.65
2017-07-22T07:40:50.062Z,75.60
2017-07-22T07:41:47.335Z,75.57
2017-07-22T07:42:44.621Z,75.56
2017-07-22T07:43:41.993Z,75.53
2017-07-22T07:44:39.234Z,75.47
2017-07-22T07:45:41.624Z,75.39
2017-07-22T07:46:39.001Z,75.37
2017-07-22T07:47:36.269Z,75.32
2017-07-22T07:48:33.573Z,75.30
2017-07-22T07:49:30.796Z,75.29
2017-07-22T07:50:28.273Z,75.20
2017-07-22T07:51:25.505Z,75.21
2017-07-22T07:52:22.792Z,75.14
2017-07-22T07:53:20.056Z,75.04
2017-07-22T07:54:17.348Z,75.02
2017-07-22T07:55:14.609Z,74.98
2017-07-22T07:56:11.904Z,74.96
2017-07-22T07:57:09.148Z,74.88
2017-07-22T07:58:06.435Z,74.79
2017-07-22T07:59:03.677Z,74.66
2017-07-22T08:00:00.983Z,74.54
2017-07-22T08:00:58.250Z,74.47
2017-07-22T08:01:55.536Z,74.39
2017-07-22T08:02:52.814Z,74.34
2017-07-22T08:03:50.121Z,74.29
2017-07-22T08:04:47.364Z,74.22
2017-07-22T08:05:44.627Z,74.14
2017-07-22T08:06:41.876Z,74.07
2017-07-22T08:07:39.159Z,74.00
2017-07-22T08:08:36.424Z,73.89
2017-07-22T08:09:33.749Z,73.86
2017-07-22T08:10:30.999Z,73.83
2017-07-22T08:11:28.314Z,73.79
2017-07-22T08:12:25.574Z,73.72
2017-07-22T08:13:22.876Z,73.66
2017-07-22T08:14:20.127Z,73.63
2017-07-22T08:15:17.425Z,73.65
2017-07-22T08:16:14.652Z,73.67
2017-07-22T08:17:11.908Z,73.58
2017-07-22T08:18:09.161Z,73.49
2017-07-22T08:19:06.429Z,73.38
2017-07-22T08:20:03.664Z,73.32
2017-07-22T08:21:00.938Z,73.26
2017-07-22T08:21:58.194Z,73.26
2017-07-22T08:22:55.484Z,73.21
2017-07-22T08:23:52.733Z,73.12
2017-07-22T08:24:49.991Z,72.99
2017-07-22T08:25:47.216Z,72.83
2017-07-22T08:26:44.483Z,72.78
2017-07-22T08:27:41.738Z,72.73
2017-07-22T08:28:39.065Z,72.68
2017-07-22T08:29:36.328Z,72.61
2017-07-22T08:30:33.590Z,72.53
2017-07-22T08:31:30.840Z,72.51
2017-07-22T08:32:28.149Z,72.39
2017-07-22T08:33:25.404Z,72.27
2017-07-22T08:34:22.692Z,72.27
2017-07-22T08:35:19.948Z,72.18
2017-07-22T08:36:17.210Z,72.13
2017-07-22T08:37:14.444Z,72.09
2017-07-22T08:38:11.736Z,71.98
2017-07-22T08:39:09.004Z,71.87
2017-07-22T08:40:06.287Z,71.76
2017-07-22T08:41:03.521Z,71.71
2017-07-22T08:42:00.799Z,71.66
2017-07-22T08:42:58.068Z,71.65
2017-07-22T08:43:55.343Z,71.64
2017-07-22T08:44:52.712Z,71.53
2017-07-22T08:45:49.994Z,71.46
2017-07-22T08:46:47.240Z,71.41
2017-07-22T08:47:44.501Z,71.32
2017-07-22T08:48:41.746Z,71.25
2017-07-22T08:49:39.029Z,71.18
2017-07-22T08:50:36.265Z,71.14
2017-07-22T08:51:33.517Z,71.07
2017-07-22T08:52:30.780Z,71.02
2017-07-22T08:53:28.065Z,70.93
2017-07-22T08:54:25.336Z,70.97
2017-07-22T08:55:22.621Z,70.88
2017-07-22T08:56:19.893Z,70.75
2017-07-22T08:57:17.186Z,70.74
2017-07-22T08:58:14.458Z,70.68
2017-07-22T08:59:11.745Z,70.68
2017-07-22T09:00:09.000Z,70.57
2017-07-22T09:01:06.251Z,70.47
2017-07-22T09:02:03.504Z,70.41
2017-07-22T09:03:00.785Z,70.37
2017-07-22T09:03:58.020Z,70.32
2017-07-22T09:04:55.313Z,70.30
2017-07-22T09:05:52.580Z,70.22
2017-07-22T09:06:49.898Z,70.09
2017-07-22T09:07:47.162Z,70.04
2017-07-22T09:08:44.535Z,69.96
2017-07-22T09:09:41.792Z,69.86
2017-07-22T09:10:39.128Z,69.78
2017-07-22T09:11:36.427Z,69.81
2017-07-22T09:12:33.758Z,69.76
2017-07-22T09:13:31.047Z,69.65
2017-07-22T09:14:28.339Z,69.62
2017-07-22T09:15:25.634Z,69.54
2017-07-22T09:16:22.967Z,69.41
2017-07-22T09:17:20.291Z,69.37
2017-07-22T09:18:17.584Z,69.33
2017-07-22T09:19:14.889Z,69.28
2017-07-22T09:20:12.187Z,69.18
2017-07-22T09:21:09.505Z,69.18
2017-07-22T09:22:06.807Z,69.14
2017-07-22T09:23:04.075Z,69.12
2017-07-22T09:24:01.406Z,69.00
2017-07-22T09:24:58.670Z,68.96
2017-07-22T09:25:56.046Z,68.96
2017-07-22T09:26:53.486Z,68.90
2017-07-22T09:27:50.829Z,68.92
2017-07-22T09:28:48.106Z,68.92
2017-07-22T09:29:45.456Z,68.86
2017-07-22T09:30:42.733Z,68.72
2017-07-22T09:31:40.096Z,68.65
2017-07-22T09:32:37.373Z,68.57
2017-07-22T09:33:34.675Z,68.56
2017-07-22T09:34:31.927Z,68.44
2017-07-22T09:35:29.243Z,68.33
2017-07-22T09:36:26.792Z,68.22
2017-07-22T09:37:24.149Z,68.18
2017-07-22T09:38:21.453Z,68.16
2017-07-22T09:39:18.821Z,68.16
2017-07-22T09:40:16.081Z,68.15
2017-07-22T09:41:13.480Z,68.04
2017-07-22T09:42:10.775Z,67.93
2017-07-22T09:43:08.068Z,67.93
2017-07-22T09:44:05.394Z,67.91
2017-07-22T09:45:02.685Z,67.93
2017-07-22T09:45:59.998Z,67.86
2017-07-22T09:46:57.289Z,67.82
2017-07-22T09:47:54.587Z,67.79
2017-07-22T09:48:51.845Z,67.81
2017-07-22T09:49:49.143Z,67.84
2017-07-22T09:50:46.416Z,67.88
2017-07-22T09:51:43.756Z,67.81
2017-07-22T09:52:41.698Z,67.89
2017-07-22T09:53:40.237Z,67.83
2017-07-22T09:54:38.485Z,67.61
2017-07-22T09:55:36.978Z,67.48
2017-07-22T09:56:35.966Z,67.36
2017-07-22T09:57:34.268Z,67.30
2017-07-22T09:58:32.273Z,67.20
2017-07-22T09:59:30.714Z,67.32
2017-07-22T10:00:28.740Z,67.26
2017-07-22T10:01:27.084Z,67.09
2017-07-22T10:02:25.503Z,66.96
2017-07-22T10:03:23.985Z,66.97
2017-07-22T10:04:22.103Z,66.93
2017-07-22T10:05:20.709Z,66.80
2017-07-22T10:06:19.314Z,66.73
2017-07-22T10:07:17.910Z,66.74
2017-07-22T10:08:16.156Z,66.65
2017-07-22T10:09:18.070Z,66.58
2017-07-22T10:10:18.282Z,66.50
2017-07-22T10:11:21.919Z,66.49
2017-07-22T10:12:27.274Z,66.44
2017-07-22T10:13:27.975Z,66.41
2017-07-22T10:14:31.914Z,66.37
2017-07-22T10:15:34.247Z,66.29
2017-07-22T10:16:34.227Z,66.31
2017-07-22T10:17:33.467Z,66.34
2017-07-22T10:18:33.056Z,66.26
2017-07-22T10:19:30.969Z,66.24
2017-07-22T10:20:28.348Z,66.15
2017-07-22T10:21:25.628Z,66.05
2017-07-22T10:22:22.885Z,65.99
2017-07-22T10:23:20.206Z,65.93
2017-07-22T10:24:17.699Z,65.92
2017-07-22T10:25:15.124Z,65.88
2017-07-22T10:26:12.449Z,65.74
2017-07-22T10:27:09.723Z,65.66
2017-07-22T10:28:07.053Z,65.62
2017-07-22T10:29:04.310Z,65.63
2017-07-22T10:30:01.580Z,65.53
2017-07-22T10:30:58.849Z,65.48
2017-07-22T10:31:56.157Z,65.47
2017-07-22T10:32:53.461Z,65.32
2017-07-22T10:33:50.765Z,65.23
2017-07-22T10:34:48.106Z,65.23
2017-07-22T10:35:45.921Z,65.10
2017-07-22T10:36:43.824Z,65.04
2017-07-22T10:37:42.137Z,64.99
2017-07-22T10:38:40.755Z,64.94
2017-07-22T10:39:39.392Z,64.93
2017-07-22T10:40:37.881Z,64.84
2017-07-22T10:41:36.396Z,64.72
2017-07-22T10:42:34.968Z,64.66
2017-07-22T10:43:33.511Z,64.60
2017-07-22T10:44:31.521Z,64.48
2017-07-22T10:45:29.262Z,64.41
2017-07-22T10:46:26.527Z,64.38
2017-07-22T10:47:23.805Z,64.32
2017-07-22T10:48:21.045Z,64.22
2017-07-22T10:49:18.353Z,64.21
2017-07-22T10:50:15.660Z,64.18
2017-07-22T10:51:13.014Z,64.08
2017-07-22T10:52:10.283Z,64.02
2017-07-22T10:53:07.604Z,63.98
2017-07-22T10:54:04.885Z,63.99
2017-07-22T10:55:02.180Z,63.94
2017-07-22T10:55:59.426Z,63.85
2017-07-22T10:56:56.712Z,63.77
2017-07-22T10:57:53.959Z,63.76
2017-07-22T10:58:51.301Z,63.68
2017-07-22T10:59:48.612Z,63.56
2017-07-22T11:00:45.884Z,63.52
2017-07-22T11:01:43.129Z,63.49
2017-07-22T11:02:40.401Z,63.52
2017-07-22T11:03:37.633Z,63.63
2017-07-22T11:04:34.924Z,63.67
2017-07-22T11:05:32.154Z,63.72
2017-07-22T11:06:29.803Z,63.76
2017-07-22T11:07:27.073Z,63.59
2017-07-22T11:08:24.366Z,63.57
2017-07-22T11:09:21.627Z,63.57
2017-07-22T11:10:18.965Z,63.54
2017-07-22T11:11:16.237Z,63.50
2017-07-22T11:12:13.657Z,63.50
2017-07-22T11:13:10.877Z,63.49
2017-07-22T11:14:08.151Z,63.42
2017-07-22T11:15:05.401Z,63.34
2017-07-22T11:16:02.752Z,63.31
2017-07-22T11:16:59.996Z,63.33
2017-07-22T11:17:57.372Z,63.37
2017-07-22T11:18:54.601Z,63.37
2017-07-22T11:19:51.925Z,63.35
2017-07-22T11:20:49.145Z,63.34
2017-07-22T11:21:46.504Z,63.33
2017-07-22T11:22:43.765Z,63.26
2017-07-22T11:23:41.052Z,63.14
2017-07-22T11:24:38.304Z,63.02
2017-07-22T11:25:35.585Z,63.00
2017-07-22T11:26:32.826Z,63.05
2017-07-22T11:27:30.097Z,63.13
2017-07-22T11:28:27.372Z,63.14
2017-07-22T11:29:24.633Z,63.21
2017-07-22T11:30:21.884Z,63.19
2017-07-22T11:31:19.157Z,63.12
2017-07-22T11:32:16.408Z,63.10
2017-07-22T11:33:13.697Z,63.18
2017-07-22T11:34:11.018Z,63.19
2017-07-22T11:35:08.409Z,63.05
2017-07-22T11:36:05.675Z,62.97
2017-07-22T11:37:02.953Z,62.97
2017-07-22T11:38:00.198Z,62.99
2017-07-22T11:38:57.465Z,63.08
2017-07-22T11:39:54.808Z,62.95
2017-07-22T11:40:52.068Z,62.91
2017-07-22T11:41:49.312Z,62.98
2017-07-22T11:42:46.649Z,63.01
2017-07-22T11:43:43.884Z,63.04
2017-07-22T11:44:41.157Z,63.01
2017-07-22T11:45:38.415Z,63.04
2017-07-22T11:46:35.684Z,62.99
2017-07-22T11:47:32.953Z,62.92
2017-07-22T11:48:30.264Z,62.89
2017-07-22T11:49:27.500Z,62.78
2017-07-22T11:50:24.773Z,62.71
2017-07-22T11:51:22.001Z,62.64
2017-07-22T11:52:19.269Z,62.58
2017-07-22T11:53:16.504Z,68.98
2017-07-22T11:54:13.773Z,64.86
2017-07-22T11:55:11.246Z,64.18
2017-07-22T11:56:08.741Z,64.14
2017-07-22T11:57:05.979Z,64.19
2017-07-22T11:58:03.264Z,64.13
2017-07-22T11:59:00.641Z,64.07
2017-07-22T11:59:57.927Z,64.03
2017-07-22T12:00:55.211Z,63.97
2017-07-22T12:01:52.485Z,64.00
2017-07-22T12:02:51.985Z,63.97
2017-07-22T12:03:50.060Z,63.89
2017-07-22T12:04:47.348Z,63.87
2017-07-22T12:05:44.603Z,63.77
2017-07-22T12:06:41.982Z,63.62
2017-07-22T12:07:39.249Z,63.60
2017-07-22T12:08:36.557Z,63.53
2017-07-22T12:09:33.812Z,63.50
2017-07-22T12:10:31.106Z,63.46
2017-07-22T12:11:28.373Z,63.40
2017-07-22T12:12:25.674Z,63.27
2017-07-22T12:13:22.962Z,63.23
2017-07-22T12:14:20.398Z,63.26
2017-07-22T12:15:17.698Z,63.21
2017-07-22T12:16:14.985Z,63.12
2017-07-22T12:17:12.249Z,63.11
2017-07-22T12:18:09.532Z,63.11
2017-07-22T12:19:06.772Z,62.97